createdAt,value
2019-02-09T00:00:44.379Z,78.75
2019-02-09T00:01:44.628Z,80.39
2019-02-09T00:02:44.242Z,80.70
2019-02-09T00:03:44.340Z,80.63
2019-02-09T00:04:44.189Z,81.56
2019-02-09T00:05:44.195Z,83.11
2019-02-09T00:06:44.368Z,82.18
2019-02-09T00:07:44.620Z,83.20
2019-02-09T00:08:44.272Z,83.20
2019-02-09T00:09:44.241Z,83.45
2019-02-09T00:10:44.263Z,83.14
2019-02-09T00:11:44.324Z,83.92
2019-02-09T00:12:44.303Z,85.20
2019-02-09T00:13:44.239Z,84.79
2019-02-09T00:14:44.315Z,84.89
2019-02-09T00:15:44.510Z,85.10
2019-02-09T00:16:44.329Z,85.44
2019-02-09T00:17:44.037Z,85.86
2019-02-09T00:18:44.021Z,86.85
2019-02-09T00:19:43.991Z,86.54
2019-02-09T00:20:43.977Z,86.88
2019-02-09T00:21:44.000Z,86.06
2019-02-09T00:22:43.936Z,86.88
2019-02-09T00:23:44.056Z,87.09
2019-02-09T00:24:43.969Z,87.30
2019-02-09T00:25:43.982Z,87.09
2019-02-09T00:26:43.886Z,87.71
2019-02-09T00:27:43.862Z,87.81
2019-02-09T00:28:43.918Z,87.54
2019-02-09T00:29:46.319Z,88.78
2019-02-09T00:30:43.890Z,89.36
2019-02-09T00:31:43.853Z,88.02
2019-02-09T00:32:43.902Z,88.23
2019-02-09T00:33:43.918Z,88.26
2019-02-09T00:34:43.825Z,89.09
2019-02-09T00:35:43.799Z,89.56
2019-02-09T00:36:43.809Z,88.37
2019-02-09T00:37:43.854Z,87.96
2019-02-09T00:38:43.810Z,87.65
2019-02-09T00:39:43.738Z,88.17
2019-02-09T00:40:43.725Z,87.75
2019-02-09T00:41:43.751Z,87.65
2019-02-09T00:42:43.791Z,88.68
2019-02-09T00:43:43.723Z,88.68
2019-02-09T00:44:43.729Z,87.75
2019-02-09T00:45:43.770Z,88.26
2019-02-09T00:46:44.255Z,87.85
2019-02-09T00:47:44.211Z,89.09
2019-02-09T00:48:44.538Z,88.78
2019-02-09T00:49:44.128Z,89.09
2019-02-09T00:50:45.695Z,88.51
2019-02-09T00:52:04.815Z,88.51
2019-02-09T00:52:45.462Z,88.20
2019-02-09T00:53:44.034Z,88.78
2019-02-09T00:54:43.697Z,89.75
2019-02-09T00:55:43.765Z,88.72
2019-02-09T00:56:43.586Z,88.62
2019-02-09T00:57:43.841Z,88.20
2019-02-09T00:58:44.348Z,87.99
2019-02-09T00:59:43.844Z,88.41
2019-02-09T01:00:43.830Z,88.31
2019-02-09T01:01:44.208Z,88.92
2019-02-09T01:02:44.552Z,88.62
2019-02-09T01:03:44.143Z,88.92
2019-02-09T01:04:43.955Z,88.31
2019-02-09T01:05:44.241Z,88.72
2019-02-09T01:06:44.455Z,88.86
2019-02-09T01:07:43.470Z,88.72
2019-02-09T01:08:43.491Z,89.44
2019-02-09T01:09:43.426Z,89.65
2019-02-09T01:10:43.404Z,90.16
2019-02-09T01:11:43.389Z,89.75
2019-02-09T01:12:43.387Z,89.54
2019-02-09T01:13:43.427Z,90.10
2019-02-09T01:14:43.356Z,89.95
2019-02-09T01:15:43.399Z,91.13
2019-02-09T01:16:43.358Z,90.10
2019-02-09T01:17:43.328Z,89.89
2019-02-09T01:18:43.345Z,89.89
2019-02-09T01:19:43.303Z,90.82
2019-02-09T01:20:43.304Z,91.03
2019-02-09T01:21:43.293Z,91.13
2019-02-09T01:22:43.340Z,91.03
2019-02-09T01:23:43.276Z,90.31
2019-02-09T01:24:43.257Z,90.41
2019-02-09T01:25:43.255Z,90.31
2019-02-09T01:26:43.230Z,89.89
2019-02-09T01:27:43.213Z,89.69
2019-02-09T01:28:43.236Z,89.89
2019-02-09T01:29:43.202Z,89.83
2019-02-09T01:30:43.194Z,89.73
2019-02-09T01:31:43.172Z,90.20
2019-02-09T01:32:43.165Z,89.89
2019-02-09T01:33:43.175Z,89.62
2019-02-09T01:34:43.144Z,90.20
2019-02-09T01:35:43.145Z,89.79
2019-02-09T01:36:43.119Z,89.79
2019-02-09T01:37:43.104Z,88.86
2019-02-09T01:38:43.142Z,89.73
2019-02-09T01:39:43.103Z,89.62
2019-02-09T01:40:43.080Z,90.41
2019-02-09T01:41:43.066Z,90.61
2019-02-09T01:42:43.059Z,90.10
2019-02-09T01:43:43.051Z,89.94
2019-02-09T01:44:43.056Z,90.20
2019-02-09T01:45:43.022Z,90.20
2019-02-09T01:46:43.063Z,89.69
2019-02-09T01:47:43.001Z,90.45
2019-02-09T01:48:43.027Z,90.20
2019-02-09T01:49:43.006Z,89.58
2019-02-09T01:50:42.981Z,89.62
2019-02-09T01:51:42.955Z,89.42
2019-02-09T01:52:42.943Z,89.38
2019-02-09T01:53:42.987Z,89.07
2019-02-09T01:54:42.972Z,89.48
2019-02-09T01:55:42.924Z,89.58
2019-02-09T01:56:42.921Z,89.58
2019-02-09T01:57:42.894Z,89.69
2019-02-09T01:58:42.879Z,90.20
2019-02-09T01:59:42.902Z,89.79
2019-02-09T02:00:42.862Z,89.07
2019-02-09T02:01:42.846Z,89.38
2019-02-09T02:02:42.842Z,89.69
2019-02-09T02:03:42.846Z,90.10
2019-02-09T02:04:42.817Z,90.20
2019-02-09T02:05:42.822Z,89.89
2019-02-09T02:06:42.793Z,90.20
2019-02-09T02:07:42.809Z,90.61
2019-02-09T02:08:42.782Z,90.51
2019-02-09T02:09:42.757Z,90.92
2019-02-09T02:10:42.772Z,90.20
2019-02-09T02:11:42.812Z,90.92
2019-02-09T02:12:42.728Z,90.92
2019-02-09T02:13:42.733Z,91.13
2019-02-09T02:14:42.713Z,91.30
2019-02-09T02:15:42.712Z,90.72
2019-02-09T02:16:42.693Z,90.88
2019-02-09T02:17:42.699Z,90.72
2019-02-09T02:18:42.671Z,91.44
2019-02-09T02:19:42.665Z,91.96
2019-02-09T02:20:42.662Z,91.81
2019-02-09T02:21:42.621Z,91.91
2019-02-09T02:22:42.619Z,91.85
2019-02-09T02:23:42.604Z,91.85
2019-02-09T02:24:42.602Z,91.91
2019-02-09T02:25:42.649Z,92.63
2019-02-09T02:26:42.604Z,93.56
2019-02-09T02:27:42.558Z,92.94
2019-02-09T02:28:42.550Z,92.68
2019-02-09T02:29:42.537Z,93.56
2019-02-09T02:30:42.571Z,92.63
2019-02-09T02:31:42.541Z,93.46
2019-02-09T02:32:42.523Z,93.56
2019-02-09T02:33:42.496Z,93.31
2019-02-09T02:34:42.482Z,92.74
2019-02-09T02:35:42.515Z,92.63
2019-02-09T02:36:42.467Z,92.84
2019-02-09T02:37:42.455Z,93.35
2019-02-09T02:38:42.470Z,92.74
2019-02-09T02:39:42.436Z,92.43
2019-02-09T02:40:42.473Z,91.91
2019-02-09T02:41:42.400Z,92.18
2019-02-09T02:42:42.488Z,91.81
2019-02-09T02:43:42.388Z,92.02
2019-02-09T02:44:42.438Z,92.53
2019-02-09T02:45:42.372Z,92.69
2019-02-09T02:46:42.376Z,92.18
2019-02-09T02:47:42.338Z,91.77
2019-02-09T02:48:42.361Z,91.97
2019-02-09T02:49:42.325Z,92.08
2019-02-09T02:50:42.330Z,92.29
2019-02-09T02:51:42.342Z,92.49
2019-02-09T02:52:42.288Z,91.77
2019-02-09T02:53:42.295Z,91.77
2019-02-09T02:54:42.282Z,91.46
2019-02-09T02:55:42.259Z,91.46
2019-02-09T02:56:42.308Z,91.87
2019-02-09T02:57:42.256Z,91.97
2019-02-09T02:58:42.226Z,91.46
2019-02-09T02:59:42.270Z,92.80
2019-02-09T03:00:42.216Z,91.46
2019-02-09T03:01:42.208Z,91.87
2019-02-09T03:02:42.188Z,91.25
2019-02-09T03:03:42.223Z,91.50
2019-02-09T03:04:42.166Z,91.87
2019-02-09T03:05:42.141Z,91.60
2019-02-09T03:06:42.158Z,91.87
2019-02-09T03:07:42.199Z,92.12
2019-02-09T03:08:42.117Z,91.97
2019-02-09T03:09:42.106Z,91.77
2019-02-09T03:10:42.092Z,91.50
2019-02-09T03:11:42.139Z,91.56
2019-02-09T03:12:42.070Z,91.97
2019-02-09T03:13:42.087Z,91.05
2019-02-09T03:14:42.094Z,90.78
2019-02-09T03:15:42.048Z,91.81
2019-02-09T03:16:42.056Z,90.88
2019-02-09T03:17:42.033Z,91.40
2019-02-09T03:18:42.001Z,90.47
2019-02-09T03:19:42.027Z,90.57
2019-02-09T03:20:41.987Z,90.16
2019-02-09T03:21:41.990Z,90.01
2019-02-09T03:22:41.983Z,89.50
2019-02-09T03:23:42.041Z,89.29
2019-02-09T03:24:41.940Z,89.40
2019-02-09T03:25:41.940Z,88.68
2019-02-09T03:26:41.921Z,88.06
2019-02-09T03:27:43.524Z,88.17
2019-02-09T03:28:42.003Z,88.37
2019-02-09T03:29:41.888Z,88.06
2019-02-09T03:30:48.033Z,88.37
2019-02-09T03:31:42.889Z,87.75
2019-02-09T03:32:41.903Z,87.13
2019-02-09T03:33:41.844Z,87.75
2019-02-09T03:34:41.842Z,87.44
2019-02-09T03:35:41.834Z,86.72
2019-02-09T03:36:41.811Z,87.13
2019-02-09T03:37:41.900Z,86.82
2019-02-09T03:38:41.795Z,86.99
2019-02-09T03:39:41.781Z,86.93
2019-02-09T03:40:41.777Z,85.28
2019-02-09T03:41:41.782Z,86.10
2019-02-09T03:42:41.779Z,86.00
2019-02-09T03:43:41.748Z,86.10
2019-02-09T03:44:41.804Z,86.00
2019-02-09T03:45:41.731Z,85.49
2019-02-09T03:46:41.723Z,85.89
2019-02-09T03:47:41.703Z,85.31
2019-02-09T03:48:42.075Z,85.63
2019-02-09T03:49:41.670Z,86.04
2019-02-09T03:50:41.713Z,85.31
2019-02-09T03:51:41.648Z,85.42
2019-02-09T03:52:41.640Z,85.11
2019-02-09T03:53:41.645Z,85.22
2019-02-09T03:54:41.614Z,85.11
2019-02-09T03:55:41.606Z,85.52
2019-02-09T03:56:41.621Z,85.83
2019-02-09T03:57:41.592Z,86.24
2019-02-09T03:58:41.599Z,86.15
2019-02-09T03:59:41.570Z,86.76
2019-02-09T04:00:41.556Z,85.73
2019-02-09T04:01:41.565Z,86.24
2019-02-09T04:02:41.552Z,86.15
2019-02-09T04:03:41.583Z,86.80
2019-02-09T04:04:41.525Z,86.97
2019-02-09T04:05:41.500Z,86.24
2019-02-09T04:06:41.506Z,86.66
2019-02-09T04:07:41.480Z,86.76
2019-02-09T04:08:41.466Z,85.63
2019-02-09T04:09:41.474Z,86.24
2019-02-09T04:10:41.444Z,85.73
2019-02-09T04:11:41.465Z,86.15
2019-02-09T04:12:41.424Z,85.73
2019-02-09T04:13:41.411Z,85.31
2019-02-09T04:14:41.424Z,85.52
2019-02-09T04:15:41.445Z,86.45
2019-02-09T04:16:41.384Z,86.15
2019-02-09T04:17:41.374Z,85.73
2019-02-09T04:18:41.366Z,85.94
2019-02-09T04:19:42.033Z,85.01
2019-02-09T04:20:41.353Z,85.11
2019-02-09T04:21:41.322Z,85.11
2019-02-09T04:22:41.316Z,85.73
2019-02-09T04:23:41.295Z,85.31
2019-02-09T04:24:41.337Z,85.52
2019-02-09T04:25:41.283Z,85.94
2019-02-09T04:26:41.271Z,86.24
2019-02-09T04:27:41.265Z,85.42
2019-02-09T04:28:41.254Z,84.91
2019-02-09T04:29:41.237Z,85.42
2019-02-09T04:30:41.241Z,85.11
2019-02-09T04:31:41.250Z,85.11
2019-02-09T04:32:41.197Z,85.01
2019-02-09T04:33:41.193Z,85.52
2019-02-09T04:34:41.178Z,85.73
2019-02-09T04:35:41.212Z,85.73
2019-02-09T04:36:41.158Z,85.52
2019-02-09T04:37:41.146Z,84.80
2019-02-09T04:38:41.154Z,85.42
2019-02-09T04:39:41.133Z,84.59
2019-02-09T04:40:41.150Z,84.80
2019-02-09T04:41:41.112Z,85.01
2019-02-09T04:42:41.093Z,85.42
2019-02-09T04:43:41.091Z,84.43
2019-02-09T04:44:41.076Z,85.15
2019-02-09T04:45:41.080Z,85.15
2019-02-09T04:46:41.059Z,85.25
2019-02-09T04:47:41.039Z,85.25
2019-02-09T04:48:41.028Z,85.11
2019-02-09T04:49:41.015Z,85.77
2019-02-09T04:50:41.052Z,85.97
2019-02-09T04:51:40.995Z,85.67
2019-02-09T04:52:40.984Z,85.67
2019-02-09T04:53:40.988Z,85.36
2019-02-09T04:54:40.965Z,86.12
2019-02-09T04:55:40.973Z,85.77
2019-02-09T04:56:40.941Z,85.57
2019-02-09T04:57:40.941Z,86.39
2019-02-09T04:58:40.921Z,86.08
2019-02-09T04:59:40.919Z,85.67
2019-02-09T05:00:40.916Z,85.77
2019-02-09T05:01:40.883Z,85.77
2019-02-09T05:02:40.917Z,85.77
2019-02-09T05:03:40.896Z,85.87
2019-02-09T05:04:40.852Z,85.25
2019-02-09T05:05:40.917Z,85.46
2019-02-09T05:06:40.828Z,85.77
2019-02-09T05:07:40.819Z,85.57
2019-02-09T05:08:40.816Z,85.67
2019-02-09T05:09:40.832Z,85.25
2019-02-09T05:10:40.812Z,85.46
2019-02-09T05:11:40.791Z,85.25
2019-02-09T05:12:40.761Z,85.46
2019-02-09T05:13:40.744Z,85.22
2019-02-09T05:14:40.754Z,84.70
2019-02-09T05:15:40.729Z,84.84
2019-02-09T05:16:58.468Z,84.80
2019-02-09T05:18:06.661Z,84.94
2019-02-09T12:54:14.599Z,67.49
2019-02-09T12:55:14.496Z,68.01
2019-02-09T12:56:14.619Z,66.67
2019-02-09T12:57:14.995Z,66.16
2019-02-09T12:58:17.161Z,67.40
2019-02-09T12:59:15.442Z,66.64
2019-02-09T13:00:14.456Z,65.65
2019-02-09T13:01:18.929Z,63.98
2019-02-09T13:02:58.087Z,66.64
2019-02-09T13:03:19.734Z,66.64
2019-02-09T13:04:30.507Z,64.77
2019-02-09T13:05:37.705Z,64.06
2019-02-09T13:15:50.423Z,63.03
2019-02-09T14:53:24.412Z,68.27
2019-02-09T14:54:22.833Z,68.68
2019-02-09T14:55:23.426Z,67.76
2019-02-09T14:56:23.916Z,68.92
2019-02-09T14:57:23.818Z,68.59
2019-02-09T14:58:24.616Z,69.30
2019-02-09T14:59:23.099Z,68.51
2019-02-09T15:00:23.865Z,68.62
2019-02-09T15:01:23.294Z,68.30
2019-02-09T15:02:25.178Z,68.92
2019-02-09T15:03:26.938Z,68.51
2019-02-09T15:04:24.488Z,66.67
2019-02-09T15:05:23.875Z,68.30
2019-02-09T15:06:24.024Z,69.54
2019-02-09T15:07:22.793Z,69.20
2019-02-09T15:09:25.474Z,68.82
2019-02-09T15:10:23.447Z,69.43
2019-02-09T15:11:23.296Z,69.54
2019-02-09T15:12:24.001Z,67.79
2019-02-09T15:13:23.879Z,67.90
2019-02-09T15:14:26.167Z,69.54
2019-02-09T15:15:23.362Z,67.79
2019-02-09T15:16:22.584Z,68.41
2019-02-09T15:17:33.777Z,67.49
2019-02-09T15:18:23.851Z,68.41
2019-02-09T15:20:25.371Z,68.00
2019-02-09T15:21:23.555Z,68.10
2019-02-09T15:22:24.075Z,66.77
2019-02-09T15:23:22.928Z,67.28
2019-02-09T15:24:23.506Z,66.56
2019-02-09T15:25:26.450Z,66.36
2019-02-09T15:26:22.448Z,67.59
2019-02-09T15:27:23.328Z,66.77
2019-02-09T15:28:23.848Z,67.49
2019-02-09T15:31:38.469Z,66.05
2019-02-09T15:32:29.733Z,66.02
2019-02-09T15:33:36.034Z,66.05
2019-02-09T15:34:32.784Z,66.16
2019-02-09T15:36:08.777Z,65.23
2019-02-09T15:37:35.668Z,65.95
2019-02-09T16:48:59.652Z,69.43
2019-02-09T16:49:30.815Z,69.36
2019-02-09T16:50:41.054Z,69.56
2019-02-09T16:51:25.133Z,69.64
2019-02-09T16:52:31.479Z,69.53
2019-02-09T16:53:39.661Z,68.33
2019-02-09T16:54:31.784Z,69.53
2019-02-09T16:55:37.209Z,69.43
2019-02-09T16:56:25.466Z,68.91
2019-02-09T16:57:31.576Z,69.36
2019-02-09T16:58:28.639Z,68.85
2019-02-09T23:01:27.781Z,75.49
2019-02-09T23:02:27.627Z,75.59
2019-02-09T23:03:27.474Z,75.18
2019-02-09T23:04:27.276Z,75.49
2019-02-09T23:05:27.293Z,75.80
2019-02-09T23:06:27.248Z,75.39
2019-02-09T23:07:27.229Z,75.49
2019-02-09T23:08:27.348Z,75.49
2019-02-09T23:09:27.184Z,76.01
2019-02-09T23:10:27.226Z,75.39
2019-02-09T23:11:28.138Z,75.80
2019-02-09T23:12:28.138Z,75.59
2019-02-09T23:13:27.219Z,75.80
2019-02-09T23:14:27.133Z,75.59
2019-02-09T23:15:27.133Z,75.70
2019-02-09T23:16:27.157Z,75.70
2019-02-09T23:17:27.164Z,75.90
2019-02-09T23:18:27.085Z,75.80
2019-02-09T23:19:27.146Z,75.59
2019-02-09T23:20:27.134Z,75.90
2019-02-09T23:21:33.617Z,75.59
2019-02-09T23:22:27.054Z,75.39
2019-02-09T23:23:27.043Z,75.59
2019-02-09T23:24:27.025Z,75.70
2019-02-09T23:25:27.044Z,76.21
2019-02-09T23:26:27.003Z,76.11
2019-02-09T23:27:27.137Z,75.49
2019-02-09T23:28:28.318Z,75.59
2019-02-09T23:29:26.978Z,76.21
2019-02-09T23:30:26.971Z,75.90
2019-02-09T23:31:27.037Z,75.59
2019-02-09T23:32:27.035Z,76.31
2019-02-09T23:33:27.170Z,75.90
2019-02-09T23:34:26.930Z,76.11
2019-02-09T23:35:26.906Z,75.97
2019-02-09T23:36:26.900Z,76.73
2019-02-09T23:37:29.575Z,76.42
2019-02-09T23:38:26.921Z,76.52
2019-02-09T23:39:26.945Z,76.31
2019-02-09T23:40:26.899Z,75.59
2019-02-09T23:41:26.912Z,75.70
2019-02-09T23:42:30.007Z,76.42
2019-02-09T23:43:30.413Z,75.59
2019-02-09T23:44:26.941Z,75.70
2019-02-09T23:45:26.880Z,75.70
2019-02-09T23:46:26.841Z,75.67
2019-02-09T23:47:26.910Z,76.38
2019-02-09T23:48:27.191Z,75.56
2019-02-09T23:49:26.837Z,75.67
2019-02-09T23:50:26.779Z,76.93
2019-02-09T23:51:26.802Z,76.52
2019-02-09T23:52:26.807Z,76.42
2019-02-09T23:53:26.862Z,76.28
2019-02-09T23:54:26.758Z,76.01
2019-02-09T23:55:30.751Z,76.21
2019-02-09T23:56:26.714Z,76.48
2019-02-09T23:57:26.693Z,76.38
2019-02-09T23:58:26.776Z,76.79
2019-02-09T23:59:27.654Z,75.35
